Time;durP1;ratioP1;P1;durP2;ratioP2;P2;SDS_P1;SDS_P2;PMS_P1;PMS_P2;Temp;Humidity;BMP_temperature;BMP_pressure;BME280_temperature;BME280_humidity;BME280_pressure;Samples;Min_cycle;Max_cycle;Signal;HPM_P1;HPM_P2
2022/11/19 00:01:47;;;;;;;1.97;1.20;;;;;;;;;;10260668;28;20075;-82
2022/11/19 00:06:52;;;;;;;2.50;1.42;;;;;;;;;;10231489;28;20066;-83
2022/11/19 00:17:18;;;;;;;2.78;1.40;;;;;;;;;;10254700;28;20605;-83
2022/11/19 00:22:21;;;;;;;1.85;1.40;;;;;;;;;;10250918;28;20289;-83
2022/11/19 00:27:24;;;;;;;1.08;0.90;;;;;;;;;;10233258;28;20047;-83
2022/11/19 00:32:30;;;;;;;2.45;0.90;;;;;;;;;;10226169;29;20098;-83
2022/11/19 00:37:34;;;;;;;0.70;0.70;;;;;;;;;;10240507;28;20055;-83
2022/11/19 00:42:37;;;;;;;0.60;0.60;;;;;;;;;;10236611;28;20821;-83
2022/11/19 00:47:42;;;;;;;1.58;0.80;;;;;;;;;;10251961;28;20047;-83
2022/11/19 00:52:45;;;;;;;1.00;0.90;;;;;;;;;;10233348;28;20504;-84
2022/11/19 00:57:48;;;;;;;0.90;0.85;;;;;;;;;;10241156;28;20756;-84
2022/11/19 01:02:53;;;;;;;1.35;1.02;;;;;;;;;;10248671;28;20534;-84
2022/11/19 01:07:57;;;;;;;1.67;1.00;;;;;;;;;;10221424;28;20051;-84
2022/11/19 01:18:23;;;;;;;6.03;1.25;;;;;;;;;;10225481;28;20051;-84
2022/11/19 01:23:27;;;;;;;2.35;1.25;;;;;;;;;;10216071;28;20051;-82
2022/11/19 01:28:31;;;;;;;1.20;0.90;;;;;;;;;;10230073;28;20419;-83
2022/11/19 01:33:36;;;;;;;0.70;0.70;;;;;;;;;;10218633;28;20062;-83
2022/11/19 01:38:40;;;;;;;0.63;0.63;;;;;;;;;;10234285;28;20061;-84
2022/11/19 01:43:45;;;;;;;0.70;0.57;;;;;;;;;;10221943;29;20055;-84
2022/11/19 01:48:54;;;;;;;0.40;0.40;;;;;;;;;;10208602;29;20049;-83
2022/11/19 01:54:01;;;;;;;0.32;0.32;;;;;;;;;;10216748;28;20046;-83
2022/11/19 01:59:09;;;;;;;1.25;0.47;;;;;;;;;;10247345;28;20043;-84
2022/11/19 02:04:16;;;;;;;0.50;0.50;;;;;;;;;;10207294;28;20043;-82
2022/11/19 02:09:19;;;;;;;0.70;0.60;;;;;;;;;;10223638;28;20050;-81
2022/11/19 02:14:41;;;;;;;0.75;0.60;;;;;;;;;;10213824;28;20130;-81
2022/11/19 02:20:13;;;;;;;0.50;0.50;;;;;;;;;;10196106;28;20142;-81
2022/11/19 02:25:32;;;;;;;0.60;0.60;;;;;;;;;;10212571;28;20043;-82
2022/11/19 02:30:38;;;;;;;0.50;0.50;;;;;;;;;;10203717;28;20050;-82
2022/11/19 02:35:48;;;;;;;0.50;0.50;;;;;;;;;;10203285;28;20050;-84
2022/11/19 02:40:57;;;;;;;0.40;0.40;;;;;;;;;;10221676;28;20411;-85
2022/11/19 02:46:08;;;;;;;0.38;0.38;;;;;;;;;;10214969;28;20045;-84
2022/11/19 02:51:13;;;;;;;0.60;0.50;;;;;;;;;;10244109;28;20138;-84
2022/11/19 02:56:47;;;;;;;0.38;0.38;;;;;;;;;;10219228;28;20047;-84
2022/11/19 03:07:17;;;;;;;0.40;0.40;;;;;;;;;;10198862;28;20055;-82
2022/11/19 03:12:35;;;;;;;1.33;0.50;;;;;;;;;;10197245;28;20093;-81
2022/11/19 03:17:56;;;;;;;0.40;0.40;;;;;;;;;;10197514;28;20511;-82
2022/11/19 03:23:04;;;;;;;0.60;0.60;;;;;;;;;;10194546;28;20515;-82
2022/11/19 03:28:13;;;;;;;0.60;0.60;;;;;;;;;;10189095;28;20051;-81
2022/11/19 03:33:21;;;;;;;0.60;0.60;;;;;;;;;;10202784;28;20059;-81
2022/11/19 03:38:28;;;;;;;0.80;0.80;;;;;;;;;;10209260;28;20545;-82
2022/11/19 03:43:36;;;;;;;0.88;0.88;;;;;;;;;;10193727;28;20044;-82
2022/11/19 03:48:44;;;;;;;1.00;0.82;;;;;;;;;;10205997;28;20039;-82
2022/11/19 03:53:48;;;;;;;1.27;1.00;;;;;;;;;;10216014;28;20048;-82
2022/11/19 03:58:54;;;;;;;1.30;1.20;;;;;;;;;;10206709;28;20054;-82
2022/11/19 04:09:19;;;;;;;1.60;1.33;;;;;;;;;;10218414;28;20042;-81
2022/11/19 04:14:23;;;;;;;1.58;1.40;;;;;;;;;;10209030;28;20047;-81
2022/11/19 04:19:27;;;;;;;1.60;1.40;;;;;;;;;;10205704;28;20074;-81
2022/11/19 04:24:31;;;;;;;1.80;1.65;;;;;;;;;;10204719;28;20051;-82
2022/11/19 04:29:34;;;;;;;2.00;1.70;;;;;;;;;;10205553;28;20059;-83
2022/11/19 04:34:39;;;;;;;1.50;1.40;;;;;;;;;;10197647;28;20039;-82
2022/11/19 04:39:42;;;;;;;1.58;1.45;;;;;;;;;;10205248;28;20063;-82
2022/11/19 04:44:46;;;;;;;1.75;1.48;;;;;;;;;;10205686;28;20048;-82
2022/11/19 04:49:50;;;;;;;1.92;1.52;;;;;;;;;;10204820;28;20071;-82
2022/11/19 04:54:54;;;;;;;1.92;1.75;;;;;;;;;;10212635;28;20102;-81
2022/11/19 04:59:57;;;;;;;2.20;1.85;;;;;;;;;;10205933;28;20059;-81
2022/11/19 05:05:02;;;;;;;2.05;1.80;;;;;;;;;;10200519;28;20044;-81
2022/11/19 05:10:06;;;;;;;2.30;1.80;;;;;;;;;;10202434;28;20102;-81
2022/11/19 05:15:10;;;;;;;1.63;1.52;;;;;;;;;;10219269;28;20613;-82
2022/11/19 05:20:17;;;;;;;1.70;1.60;;;;;;;;;;10202434;28;20074;-82
2022/11/19 05:25:21;;;;;;;2.35;1.92;;;;;;;;;;10222984;28;20070;-83
2022/11/19 05:30:25;;;;;;;2.30;1.92;;;;;;;;;;10248500;28;20051;-84
2022/11/19 05:35:29;;;;;;;2.42;2.00;;;;;;;;;;10229363;28;20038;-84
2022/11/19 05:40:33;;;;;;;2.22;2.00;;;;;;;;;;10226446;28;20050;-83
2022/11/19 05:45:36;;;;;;;1.88;1.67;;;;;;;;;;10237746;28;20043;-83
2022/11/19 05:50:42;;;;;;;2.20;2.00;;;;;;;;;;10229837;28;20057;-82
2022/11/19 05:55:46;;;;;;;2.28;1.98;;;;;;;;;;10235085;28;20043;-83
2022/11/19 06:00:53;;;;;;;2.10;1.90;;;;;;;;;;10212318;28;20257;-83
2022/11/19 06:05:58;;;;;;;1.63;1.52;;;;;;;;;;10200385;28;20073;-84
2022/11/19 06:11:03;;;;;;;1.98;1.77;;;;;;;;;;10245102;28;20383;-84
2022/11/19 06:16:06;;;;;;;2.17;1.60;;;;;;;;;;10212274;28;20118;-84
2022/11/19 06:21:11;;;;;;;1.52;1.42;;;;;;;;;;10226673;28;20053;-83
2022/11/19 06:26:22;;;;;;;1.17;1.08;;;;;;;;;;10214377;28;20043;-84
2022/11/19 06:31:25;;;;;;;1.52;1.17;;;;;;;;;;10209895;28;20051;-83
2022/11/19 06:36:30;;;;;;;1.45;1.17;;;;;;;;;;10229349;28;20535;-83
2022/11/19 06:41:38;;;;;;;1.23;1.13;;;;;;;;;;10228936;28;20081;-83
2022/11/19 06:46:41;;;;;;;1.50;1.08;;;;;;;;;;10219458;28;20637;-83
2022/11/19 06:51:46;;;;;;;2.10;1.45;;;;;;;;;;10222111;28;20058;-84
2022/11/19 06:56:49;;;;;;;2.33;1.58;;;;;;;;;;10237080;28;20048;-83
2022/11/19 07:01:53;;;;;;;1.20;1.10;;;;;;;;;;10207406;28;20083;-83
2022/11/19 07:06:58;;;;;;;1.20;1.10;;;;;;;;;;10229798;28;20074;-80
2022/11/19 07:12:01;;;;;;;1.80;1.60;;;;;;;;;;10224902;28;20503;-81
2022/11/19 07:17:05;;;;;;;1.75;1.40;;;;;;;;;;10207059;28;20054;-81
2022/11/19 07:22:10;;;;;;;2.00;1.60;;;;;;;;;;10204505;28;20167;-82
2022/11/19 07:27:13;;;;;;;1.80;1.58;;;;;;;;;;10224301;28;20055;-81
2022/11/19 07:32:16;;;;;;;2.03;1.77;;;;;;;;;;10219712;28;20062;-81
2022/11/19 07:37:21;;;;;;;2.28;1.70;;;;;;;;;;10209228;28;20055;-82
2022/11/19 07:47:45;;;;;;;3.55;2.22;;;;;;;;;;10222348;28;20126;-84
2022/11/19 07:52:50;;;;;;;2.03;1.35;;;;;;;;;;10208992;28;20496;-85
2022/11/19 07:57:54;;;;;;;3.67;1.85;;;;;;;;;;10216754;28;20058;-83
2022/11/19 08:02:57;;;;;;;2.15;1.90;;;;;;;;;;10211945;28;20051;-85
2022/11/19 08:08:03;;;;;;;2.47;1.80;;;;;;;;;;10228619;28;20543;-83
2022/11/19 08:13:06;;;;;;;2.45;1.58;;;;;;;;;;10208853;28;20051;-85
2022/11/19 08:18:14;;;;;;;2.53;2.03;;;;;;;;;;10208802;28;20141;-86
2022/11/19 08:23:19;;;;;;;1.95;1.75;;;;;;;;;;10228006;28;20047;-84
2022/11/19 08:28:23;;;;;;;3.45;2.65;;;;;;;;;;10226702;28;20050;-87
2022/11/19 08:33:26;;;;;;;2.60;2.40;;;;;;;;;;10224064;28;20051;-86
2022/11/19 08:38:31;;;;;;;3.50;2.65;;;;;;;;;;10224947;28;20382;-86
2022/11/19 08:43:36;;;;;;;3.05;2.08;;;;;;;;;;10241140;28;20146;-90
2022/11/19 08:48:40;;;;;;;1.73;1.40;;;;;;;;;;10227994;28;20052;-89
2022/11/19 08:53:47;;;;;;;1.20;1.10;;;;;;;;;;10224733;28;20130;-88
2022/11/19 08:58:53;;;;;;;1.40;1.25;;;;;;;;;;10154527;29;20058;-87
2022/11/19 09:03:58;;;;;;;1.42;1.30;;;;;;;;;;10162680;29;20059;-87
2022/11/19 09:09:04;;;;;;;1.50;1.30;;;;;;;;;;10188128;29;20047;-89
2022/11/19 09:14:08;;;;;;;1.53;1.43;;;;;;;;;;10179408;29;20043;-89
2022/11/19 09:19:11;;;;;;;1.65;1.40;;;;;;;;;;10176065;29;20126;-89
2022/11/19 09:24:16;;;;;;;1.75;1.35;;;;;;;;;;10170354;29;20150;-89
2022/11/19 09:29:20;;;;;;;2.08;1.50;;;;;;;;;;10178112;29;20044;-89
2022/11/19 09:34:24;;;;;;;2.30;2.10;;;;;;;;;;10179629;29;20047;-88
2022/11/19 09:39:30;;;;;;;1.75;1.45;;;;;;;;;;10197689;29;20047;-89
2022/11/19 09:44:45;;;;;;;2.10;1.88;;;;;;;;;;10177113;29;20534;-87
2022/11/19 09:49:58;;;;;;;2.08;1.60;;;;;;;;;;10175322;29;20421;-88
2022/11/19 09:55:03;;;;;;;1.83;1.70;;;;;;;;;;10176880;28;20130;-88
2022/11/19 10:00:09;;;;;;;3.22;2.45;;;;;;;;;;10221388;28;20047;-88
2022/11/19 10:05:28;;;;;;;3.10;2.17;;;;;;;;;;10239878;28;20051;-87
2022/11/19 10:10:40;;;;;;;2.55;2.05;;;;;;;;;;10239596;28;20047;-87
2022/11/19 10:15:57;;;;;;;4.40;3.05;;;;;;;;;;10261082;28;20077;-87
2022/11/19 10:21:09;;;;;;;3.45;2.40;;;;;;;;;;10257542;28;20070;-87
2022/11/19 10:26:15;;;;;;;2.72;2.42;;;;;;;;;;10257404;28;20134;-87
2022/11/19 10:31:28;;;;;;;2.55;2.17;;;;;;;;;;10258499;28;20047;-87
2022/11/19 10:36:37;;;;;;;3.10;2.33;;;;;;;;;;10250728;28;20809;-87
2022/11/19 10:41:46;;;;;;;3.55;2.83;;;;;;;;;;10262685;28;20042;-87
2022/11/19 10:46:50;;;;;;;5.03;3.10;;;;;;;;;;10264351;28;20133;-87
2022/11/19 10:51:54;;;;;;;5.07;3.58;;;;;;;;;;10247545;28;20053;-84
2022/11/19 10:57:00;;;;;;;4.13;3.08;;;;;;;;;;10238471;28;20051;-83
2022/11/19 11:02:31;;;;;;;6.50;4.43;;;;;;;;;;10254029;28;20885;-84
2022/11/19 11:07:52;;;;;;;7.18;4.53;;;;;;;;;;10222272;28;20499;-84
2022/11/19 11:18:28;;;;;;;5.93;3.75;;;;;;;;;;10236995;28;20298;-84
2022/11/19 11:23:32;;;;;;;5.78;4.00;;;;;;;;;;10237780;28;20046;-85
2022/11/19 11:28:37;;;;;;;5.53;3.92;;;;;;;;;;10245257;28;20058;-85
2022/11/19 11:33:42;;;;;;;4.53;3.35;;;;;;;;;;10220091;28;20042;-83
2022/11/19 11:38:47;;;;;;;5.05;3.33;;;;;;;;;;10230657;28;20047;-84
2022/11/19 11:44:02;;;;;;;6.15;4.10;;;;;;;;;;10230170;28;20065;-82
2022/11/19 11:49:10;;;;;;;6.90;5.18;;;;;;;;;;10214128;28;20051;-83
2022/11/19 11:54:20;;;;;;;5.32;3.58;;;;;;;;;;10236656;28;20053;-83
2022/11/19 11:59:27;;;;;;;5.38;3.80;;;;;;;;;;10236947;28;20062;-83
2022/11/19 12:04:31;;;;;;;8.27;5.00;;;;;;;;;;10217356;28;20047;-81
2022/11/19 12:09:44;;;;;;;5.10;3.95;;;;;;;;;;10241773;28;20050;-82
2022/11/19 12:14:56;;;;;;;5.82;3.85;;;;;;;;;;10251011;28;20141;-83
2022/11/19 12:20:16;;;;;;;6.13;4.53;;;;;;;;;;10235670;28;20043;-83
2022/11/19 12:25:25;;;;;;;4.80;3.42;;;;;;;;;;10238938;28;20062;-84
2022/11/19 12:30:37;;;;;;;7.40;4.07;;;;;;;;;;10251603;28;20110;-83
2022/11/19 12:35:51;;;;;;;5.90;4.05;;;;;;;;;;10228460;28;20050;-83
2022/11/19 12:41:05;;;;;;;8.48;4.90;;;;;;;;;;10253833;28;20047;-83
2022/11/19 12:46:19;;;;;;;5.88;3.90;;;;;;;;;;10221639;28;20053;-83
2022/11/19 12:51:42;;;;;;;4.85;3.50;;;;;;;;;;10223226;28;20058;-83
2022/11/19 12:56:54;;;;;;;5.20;3.47;;;;;;;;;;10228858;28;20592;-83
2022/11/19 13:02:01;;;;;;;4.38;3.17;;;;;;;;;;10225229;28;20057;-83
2022/11/19 13:07:08;;;;;;;4.70;3.15;;;;;;;;;;10231880;28;20784;-83
2022/11/19 13:12:14;;;;;;;3.47;2.78;;;;;;;;;;10232432;28;20089;-83
2022/11/19 13:17:22;;;;;;;;;;;;;;;;;;10244051;28;20783;-83
2022/11/19 13:22:31;;;;;;;4.28;3.08;;;;;;;;;;10222343;28;19922;-83
2022/11/19 13:27:36;;;;;;;5.03;4.22;;;;;;;;;;10209814;28;20050;-83
2022/11/19 13:32:48;;;;;;;4.68;3.50;;;;;;;;;;10228518;28;20055;-83
2022/11/19 13:38:00;;;;;;;4.70;3.65;;;;;;;;;;10232744;28;20055;-83
2022/11/19 13:48:39;;;;;;;5.03;3.53;;;;;;;;;;10247801;28;20504;-83
2022/11/19 13:53:45;;;;;;;6.13;3.90;;;;;;;;;;10219504;28;20047;-83
2022/11/19 13:58:50;;;;;;;4.35;3.30;;;;;;;;;;10185812;29;20047;-83
2022/11/19 14:04:10;;;;;;;6.53;4.30;;;;;;;;;;10206535;29;20555;-83
2022/11/19 14:09:25;;;;;;;6.85;4.60;;;;;;;;;;10183136;29;20337;-83
2022/11/19 14:31:07;;;;;;;7.97;4.90;;;;;;;;;;10183450;29;20047;-87
2022/11/19 14:36:14;;;;;;;6.18;4.35;;;;;;;;;;10202070;29;20059;-86
2022/11/19 14:41:29;;;;;;;6.82;4.15;;;;;;;;;;10188363;29;20500;-87
2022/11/19 14:46:33;;;;;;;7.82;4.57;;;;;;;;;;10213240;28;20071;-86
2022/11/19 14:51:40;;;;;;;6.68;4.47;;;;;;;;;;10179475;29;20058;-85
2022/11/19 14:56:45;;;;;;;6.43;4.30;;;;;;;;;;10232129;28;20042;-87
2022/11/19 15:01:55;;;;;;;6.30;4.50;;;;;;;;;;10233208;28;20399;-85
2022/11/19 15:07:00;;;;;;;6.97;4.30;;;;;;;;;;10213431;28;20458;-89
2022/11/19 15:12:04;;;;;;;6.50;4.65;;;;;;;;;;10255734;28;20070;-86
2022/11/19 15:17:10;;;;;;;7.07;4.07;;;;;;;;;;10258306;28;20089;-87
2022/11/19 15:22:32;;;;;;;5.65;3.92;;;;;;;;;;10229339;28;20050;-85
2022/11/19 15:27:53;;;;;;;6.03;4.13;;;;;;;;;;10235583;28;20105;-89
2022/11/19 15:33:39;;;;;;;5.55;4.28;;;;;;;;;;10217078;28;20055;-87
2022/11/19 15:38:48;;;;;;;6.88;4.88;;;;;;;;;;10232452;28;20047;-87
2022/11/19 15:43:56;;;;;;;7.15;4.45;;;;;;;;;;10220854;28;20054;-83
2022/11/19 15:49:05;;;;;;;6.47;4.55;;;;;;;;;;10215477;28;20047;-84
2022/11/19 15:54:12;;;;;;;8.52;5.63;;;;;;;;;;10221835;28;20443;-85
2022/11/19 15:59:18;;;;;;;8.82;5.72;;;;;;;;;;10222982;28;20043;-85
2022/11/19 16:04:22;;;;;;;6.97;5.30;;;;;;;;;;10218743;28;20466;-84
2022/11/19 16:09:27;;;;;;;7.38;4.97;;;;;;;;;;10228956;28;20302;-84
2022/11/19 16:20:17;;;;;;;6.47;4.40;;;;;;;;;;10231569;28;20047;-88
2022/11/19 16:25:27;;;;;;;5.38;3.88;;;;;;;;;;10239051;28;20050;-87
2022/11/19 16:30:39;;;;;;;7.45;4.72;;;;;;;;;;10238586;28;20043;-86
2022/11/19 16:35:43;;;;;;;8.73;5.95;;;;;;;;;;10237051;28;20067;-85
2022/11/19 16:46:13;;;;;;;10.38;5.97;;;;;;;;;;10246320;28;20096;-84
2022/11/19 16:51:30;;;;;;;11.63;6.72;;;;;;;;;;10230097;28;20306;-84
2022/11/19 16:56:42;;;;;;;7.63;4.78;;;;;;;;;;10229259;28;20475;-85
2022/11/19 17:01:51;;;;;;;6.82;4.18;;;;;;;;;;10237581;28;20582;-86
2022/11/19 17:06:56;;;;;;;7.80;5.05;;;;;;;;;;10261073;28;20455;-86
2022/11/19 17:12:18;;;;;;;8.60;4.72;;;;;;;;;;10224302;28;20419;-85
2022/11/19 17:17:37;;;;;;;6.47;4.68;;;;;;;;;;10232809;28;20058;-84
2022/11/19 17:22:42;;;;;;;8.20;5.55;;;;;;;;;;10229688;28;20043;-86
2022/11/19 17:27:51;;;;;;;9.73;6.50;;;;;;;;;;10213461;28;20047;-86
2022/11/19 17:32:58;;;;;;;10.07;5.60;;;;;;;;;;10220381;28;20066;-86
2022/11/19 17:38:09;;;;;;;12.07;6.45;;;;;;;;;;10228153;28;20138;-86
2022/11/19 17:48:39;;;;;;;9.90;6.07;;;;;;;;;;10221017;28;20110;-87
2022/11/19 17:53:43;;;;;;;15.52;8.55;;;;;;;;;;10217375;28;20046;-85
2022/11/19 17:58:48;;;;;;;12.00;6.50;;;;;;;;;;10229488;28;20622;-87
2022/11/19 18:03:52;;;;;;;8.30;5.30;;;;;;;;;;10215255;28;20039;-87
2022/11/19 18:08:55;;;;;;;7.55;5.00;;;;;;;;;;10242495;28;20049;-87
2022/11/19 18:14:08;;;;;;;8.88;5.57;;;;;;;;;;10252947;28;20043;-87
2022/11/19 18:19:22;;;;;;;7.78;5.10;;;;;;;;;;10231390;28;20420;-87
2022/11/19 18:24:26;;;;;;;9.18;5.85;;;;;;;;;;10241207;28;20129;-87
2022/11/19 18:29:32;;;;;;;8.43;5.60;;;;;;;;;;10246782;28;20058;-87
2022/11/19 18:34:36;;;;;;;7.97;4.68;;;;;;;;;;10217900;28;20047;-87
2022/11/19 18:39:39;;;;;;;8.07;5.25;;;;;;;;;;10236337;28;20051;-87
2022/11/19 18:44:44;;;;;;;9.05;5.10;;;;;;;;;;10248539;28;20078;-87
2022/11/19 18:49:48;;;;;;;8.10;5.05;;;;;;;;;;10244115;28;20257;-87
2022/11/19 18:54:51;;;;;;;8.50;5.88;;;;;;;;;;10218032;28;20713;-87
2022/11/19 18:59:56;;;;;;;7.22;5.22;;;;;;;;;;10237721;28;20039;-89
2022/11/19 19:04:59;;;;;;;10.05;5.13;;;;;;;;;;10253776;28;20101;-88
2022/11/19 19:10:03;;;;;;;7.90;5.22;;;;;;;;;;10253931;28;20514;-87
2022/11/19 19:15:10;;;;;;;9.52;5.97;;;;;;;;;;10236848;28;20042;-85
2022/11/19 19:20:14;;;;;;;8.73;4.97;;;;;;;;;;10251600;28;20665;-82
2022/11/19 19:25:18;;;;;;;8.88;6.18;;;;;;;;;;10223903;28;20046;-82
2022/11/19 19:30:23;;;;;;;12.65;5.72;;;;;;;;;;10236976;28;20130;-82
2022/11/19 19:35:26;;;;;;;8.60;5.72;;;;;;;;;;10246385;28;20616;-81
2022/11/19 19:40:29;;;;;;;11.68;6.45;;;;;;;;;;10218930;28;20141;-81
2022/11/19 19:45:35;;;;;;;10.20;6.20;;;;;;;;;;10237400;28;20075;-81
2022/11/19 19:50:39;;;;;;;10.30;6.18;;;;;;;;;;10253339;28;20779;-80
2022/11/19 19:55:42;;;;;;;9.23;5.55;;;;;;;;;;10253067;28;20055;-81
2022/11/19 20:00:47;;;;;;;10.52;5.85;;;;;;;;;;10230150;28;20048;-81
2022/11/19 20:05:51;;;;;;;8.93;5.80;;;;;;;;;;10260761;28;20093;-81
2022/11/19 20:10:55;;;;;;;7.45;5.10;;;;;;;;;;10251406;28;20044;-81
2022/11/19 20:16:04;;;;;;;9.73;5.78;;;;;;;;;;10251624;28;20046;-81
2022/11/19 20:21:10;;;;;;;8.45;5.28;;;;;;;;;;10251861;28;20038;-81
2022/11/19 20:26:15;;;;;;;7.43;4.80;;;;;;;;;;10239927;28;20051;-81
2022/11/19 20:31:20;;;;;;;7.37;5.03;;;;;;;;;;10224868;28;20737;-82
2022/11/19 20:36:26;;;;;;;9.07;5.32;;;;;;;;;;10235397;28;20122;-81
2022/11/19 20:46:53;;;;;;;8.65;5.53;;;;;;;;;;10246645;28;20057;-80
2022/11/19 20:51:57;;;;;;;7.93;5.35;;;;;;;;;;10239532;28;20047;-81
2022/11/19 20:57:01;;;;;;;9.05;5.40;;;;;;;;;;10217121;29;20134;-81
2022/11/19 21:02:06;;;;;;;8.98;6.18;;;;;;;;;;10198367;29;20066;-81
2022/11/19 21:07:10;;;;;;;10.40;5.75;;;;;;;;;;10216198;29;20051;-81
2022/11/19 21:12:13;;;;;;;9.43;5.47;;;;;;;;;;10225952;29;20047;-82
2022/11/19 21:17:18;;;;;;;8.25;5.68;;;;;;;;;;10195428;29;20048;-81
2022/11/19 21:22:21;;;;;;;7.82;4.88;;;;;;;;;;10211213;29;20047;-80
2022/11/19 21:27:25;;;;;;;8.00;5.10;;;;;;;;;;10194812;28;20754;-81
2022/11/19 21:32:29;;;;;;;8.18;5.10;;;;;;;;;;10197259;29;20059;-81
2022/11/19 21:37:33;;;;;;;8.32;5.65;;;;;;;;;;10201061;29;20415;-80
2022/11/19 21:42:37;;;;;;;10.13;5.85;;;;;;;;;;10179062;29;20050;-81
2022/11/19 21:47:41;;;;;;;7.22;5.00;;;;;;;;;;10216600;29;20055;-82
2022/11/19 21:52:45;;;;;;;9.60;5.75;;;;;;;;;;10185464;29;20135;-84
2022/11/19 21:57:48;;;;;;;9.52;5.82;;;;;;;;;;10274247;28;20499;-82
2022/11/19 22:02:53;;;;;;;11.18;6.70;;;;;;;;;;10241852;28;20426;-81
2022/11/19 22:07:59;;;;;;;10.88;6.20;;;;;;;;;;10251662;28;20046;-82
2022/11/19 22:13:02;;;;;;;8.60;5.43;;;;;;;;;;10248581;28;20084;-83
2022/11/19 22:18:07;;;;;;;12.13;6.88;;;;;;;;;;10244297;28;20046;-82
2022/11/19 22:23:11;;;;;;;9.90;5.75;;;;;;;;;;10238496;28;20192;-82
2022/11/19 22:28:14;;;;;;;8.48;5.22;;;;;;;;;;10240794;28;20046;-84
2022/11/19 22:33:19;;;;;;;9.07;5.95;;;;;;;;;;10254317;28;20039;-83
2022/11/19 22:38:22;;;;;;;7.03;5.05;;;;;;;;;;10259811;28;20047;-82
2022/11/19 22:43:25;;;;;;;9.80;5.53;;;;;;;;;;10254032;28;20754;-82
2022/11/19 22:48:31;;;;;;;7.55;4.93;;;;;;;;;;10247107;28;20051;-82
2022/11/19 22:53:35;;;;;;;9.32;5.28;;;;;;;;;;10258471;28;20043;-82
2022/11/19 22:58:39;;;;;;;10.90;7.45;;;;;;;;;;10200022;29;20055;-82
2022/11/19 23:03:44;;;;;;;8.75;5.85;;;;;;;;;;10192735;29;20054;-83
2022/11/19 23:08:51;;;;;;;7.97;5.60;;;;;;;;;;10185391;29;20047;-83
2022/11/19 23:13:55;;;;;;;9.45;5.85;;;;;;;;;;10189410;29;20086;-83
2022/11/19 23:19:00;;;;;;;9.20;5.70;;;;;;;;;;10210531;29;20532;-85
2022/11/19 23:24:04;;;;;;;9.70;6.10;;;;;;;;;;10207807;29;20135;-83
2022/11/19 23:29:08;;;;;;;8.57;5.38;;;;;;;;;;10185630;29;20067;-82
2022/11/19 23:34:13;;;;;;;8.98;5.90;;;;;;;;;;10198195;29;20519;-82
2022/11/19 23:39:17;;;;;;;9.90;6.38;;;;;;;;;;10177656;29;20101;-82
2022/11/19 23:44:20;;;;;;;10.98;6.38;;;;;;;;;;10213226;28;20467;-82
2022/11/19 23:49:25;;;;;;;12.60;6.97;;;;;;;;;;10200730;29;20056;-84
2022/11/19 23:54:29;;;;;;;9.55;5.88;;;;;;;;;;10236595;28;20566;-83
2022/11/19 23:59:32;;;;;;;10.77;6.18;;;;;;;;;;10251133;28;20147;-84
